sensor_id;sensor_type;location;lat;lon;timestamp;pressure;altitude;pressure_sealevel;temperature;humidity
50684;BME280;36654;45.042;38.994;2023-02-04T00:00:21;101124.25;;;3.19;86.43
50684;BME280;36654;45.042;38.994;2023-02-04T00:02:48;101071.41;;;2.90;86.78
50684;BME280;36654;45.042;38.994;2023-02-04T00:05:16;101100.94;;;3.06;86.94
50684;BME280;36654;45.042;38.994;2023-02-04T00:07:42;101126.19;;;3.23;86.89
50684;BME280;36654;45.042;38.994;2023-02-04T00:10:08;101119.31;;;3.25;87.12
50684;BME280;36654;45.042;38.994;2023-02-04T00:12:34;101120.59;;;3.15;86.96
50684;BME280;36654;45.042;38.994;2023-02-04T00:15:00;101123.66;;;3.24;87.03
50684;BME280;36654;45.042;38.994;2023-02-04T00:17:26;101123.50;;;3.21;87.23
50684;BME280;36654;45.042;38.994;2023-02-04T00:19:53;101127.47;;;3.13;87.30
50684;BME280;36654;45.042;38.994;2023-02-04T00:22:19;101087.47;;;2.98;87.40
50684;BME280;36654;45.042;38.994;2023-02-04T00:24:45;101112.59;;;3.12;87.65
50684;BME280;36654;45.042;38.994;2023-02-04T00:27:14;101131.13;;;3.17;87.45
50684;BME280;36654;45.042;38.994;2023-02-04T00:29:40;101063.19;;;2.83;87.39
50684;BME280;36654;45.042;38.994;2023-02-04T00:32:07;101131.59;;;3.08;87.52
50684;BME280;36654;45.042;38.994;2023-02-04T00:34:33;101132.06;;;3.17;87.77
50684;BME280;36654;45.042;38.994;2023-02-04T00:36:58;101129.25;;;3.14;87.57
50684;BME280;36654;45.042;38.994;2023-02-04T00:39:25;101138.06;;;3.15;87.59
50684;BME280;36654;45.042;38.994;2023-02-04T00:41:51;101130.94;;;3.12;87.88
50684;BME280;36654;45.042;38.994;2023-02-04T00:44:16;101138.06;;;3.15;87.70
50684;BME280;36654;45.042;38.994;2023-02-04T00:46:42;101126.22;;;3.05;87.59
50684;BME280;36654;45.042;38.994;2023-02-04T00:49:08;101133.13;;;3.03;87.78
50684;BME280;36654;45.042;38.994;2023-02-04T00:51:38;101145.91;;;3.15;87.79
50684;BME280;36654;45.042;38.994;2023-02-04T00:54:05;101170.06;;;3.09;87.75
50684;BME280;36654;45.042;38.994;2023-02-04T00:56:32;101148.06;;;3.06;87.80
50684;BME280;36654;45.042;38.994;2023-02-04T00:58:58;101154.66;;;3.15;88.06
50684;BME280;36654;45.042;38.994;2023-02-04T01:01:24;101150.16;;;3.13;88.26
50684;BME280;36654;45.042;38.994;2023-02-04T01:03:49;101072.00;;;2.67;87.97
50684;BME280;36654;45.042;38.994;2023-02-04T01:06:15;101163.19;;;3.11;87.88
50684;BME280;36654;45.042;38.994;2023-02-04T01:08:41;101163.19;;;3.11;87.95
50684;BME280;36654;45.042;38.994;2023-02-04T01:11:06;101165.88;;;3.13;87.96
50684;BME280;36654;45.042;38.994;2023-02-04T01:13:32;101143.44;;;3.00;87.86
50684;BME280;36654;45.042;38.994;2023-02-04T01:15:57;101093.16;;;2.71;87.88
50684;BME280;36654;45.042;38.994;2023-02-04T01:18:23;101165.00;;;3.12;87.93
50684;BME280;36654;45.042;38.994;2023-02-04T01:20:49;101077.94;;;2.63;87.64
50684;BME280;36654;45.042;38.994;2023-02-04T01:23:14;101097.78;;;2.77;87.47
50684;BME280;36654;45.042;38.994;2023-02-04T01:25:40;101144.47;;;3.03;87.27
50684;BME280;36654;45.042;38.994;2023-02-04T01:28:06;101118.59;;;2.92;87.28
50684;BME280;36654;45.042;38.994;2023-02-04T01:30:31;101134.00;;;3.03;86.99
50684;BME280;36654;45.042;38.994;2023-02-04T01:32:57;101143.69;;;3.05;86.93
50684;BME280;36654;45.042;38.994;2023-02-04T01:35:22;101159.75;;;3.12;86.83
50684;BME280;36654;45.042;38.994;2023-02-04T01:37:48;101146.34;;;3.06;86.75
50684;BME280;36654;45.042;38.994;2023-02-04T01:40:13;101159.44;;;3.06;86.57
50684;BME280;36654;45.042;38.994;2023-02-04T01:42:39;101155.09;;;3.07;86.55
50684;BME280;36654;45.042;38.994;2023-02-04T01:45:06;101147.00;;;3.02;86.52
50684;BME280;36654;45.042;38.994;2023-02-04T01:47:32;101144.97;;;2.95;86.14
50684;BME280;36654;45.042;38.994;2023-02-04T01:49:58;101081.22;;;2.58;86.12
50684;BME280;36654;45.042;38.994;2023-02-04T01:52:33;101156.75;;;2.87;86.26
50684;BME280;36654;45.042;38.994;2023-02-04T01:54:59;101158.56;;;2.88;86.30
50684;BME280;36654;45.042;38.994;2023-02-04T01:57:25;101146.13;;;2.84;86.45
50684;BME280;36654;45.042;38.994;2023-02-04T01:59:54;101144.94;;;2.77;86.24
50684;BME280;36654;45.042;38.994;2023-02-04T02:02:45;101160.22;;;2.86;86.23
50684;BME280;36654;45.042;38.994;2023-02-04T02:05:18;101138.75;;;2.75;86.37
50684;BME280;36654;45.042;38.994;2023-02-04T02:07:46;101153.75;;;2.79;86.17
50684;BME280;36654;45.042;38.994;2023-02-04T02:10:13;101140.81;;;2.64;86.06
50684;BME280;36654;45.042;38.994;2023-02-04T02:12:40;101092.28;;;2.35;86.19
50684;BME280;36654;45.042;38.994;2023-02-04T02:15:08;101161.25;;;2.71;86.04
50684;BME280;36654;45.042;38.994;2023-02-04T02:17:34;101164.56;;;2.67;85.97
50684;BME280;36654;45.042;38.994;2023-02-04T02:20:00;101155.34;;;2.57;85.97
50684;BME280;36654;45.042;38.994;2023-02-04T02:22:34;101169.59;;;2.64;86.26
50684;BME280;36654;45.042;38.994;2023-02-04T02:25:06;101167.91;;;2.65;86.22
50684;BME280;36654;45.042;38.994;2023-02-04T02:27:32;101164.22;;;2.61;86.38
50684;BME280;36654;45.042;38.994;2023-02-04T02:29:57;101157.50;;;2.66;86.33
50684;BME280;36654;45.042;38.994;2023-02-04T02:32:23;101149.59;;;2.65;86.14
50684;BME280;36654;45.042;38.994;2023-02-04T02:34:49;101144.91;;;2.59;86.31
50684;BME280;36654;45.042;38.994;2023-02-04T02:37:14;101149.78;;;2.69;86.06
50684;BME280;36654;45.042;38.994;2023-02-04T02:39:43;101152.13;;;2.63;86.37
50684;BME280;36654;45.042;38.994;2023-02-04T02:42:10;101141.78;;;2.66;86.15
50684;BME280;36654;45.042;38.994;2023-02-04T02:44:37;101077.75;;;2.24;85.79
50684;BME280;36654;45.042;38.994;2023-02-04T02:47:03;101139.53;;;2.56;85.77
50684;BME280;36654;45.042;38.994;2023-02-04T02:49:30;101131.22;;;2.47;85.78
50684;BME280;36654;45.042;38.994;2023-02-04T02:51:57;101148.13;;;2.53;85.81
50684;BME280;36654;45.042;38.994;2023-02-04T02:54:27;101076.72;;;2.20;85.73
50684;BME280;36654;45.042;38.994;2023-02-04T02:56:54;101076.84;;;2.23;85.73
50684;BME280;36654;45.042;38.994;2023-02-04T02:59:21;101132.19;;;2.49;85.89
50684;BME280;36654;45.042;38.994;2023-02-04T03:01:50;101156.38;;;2.61;85.65
50684;BME280;36654;45.042;38.994;2023-02-04T03:04:19;101065.78;;;2.11;85.84
50684;BME280;36654;45.042;38.994;2023-02-04T03:06:46;101140.19;;;2.52;85.59
50684;BME280;36654;45.042;38.994;2023-02-04T03:09:12;101146.28;;;2.51;85.75
50684;BME280;36654;45.042;38.994;2023-02-04T03:11:38;101121.44;;;2.43;85.79
50684;BME280;36654;45.042;38.994;2023-02-04T03:14:04;101143.06;;;2.56;85.79
50684;BME280;36654;45.042;38.994;2023-02-04T03:16:31;101137.59;;;2.52;85.69
50684;BME280;36654;45.042;38.994;2023-02-04T03:18:59;101137.44;;;2.49;85.89
50684;BME280;36654;45.042;38.994;2023-02-04T03:21:25;101140.28;;;2.53;85.84
50684;BME280;36654;45.042;38.994;2023-02-04T03:23:51;101140.94;;;2.49;85.74
50684;BME280;36654;45.042;38.994;2023-02-04T03:26:24;101156.00;;;2.53;85.93
50684;BME280;36654;45.042;38.994;2023-02-04T03:28:52;101078.00;;;2.12;85.96
50684;BME280;36654;45.042;38.994;2023-02-04T03:31:20;101167.34;;;2.54;85.88
50684;BME280;36654;45.042;38.994;2023-02-04T03:33:46;101170.66;;;2.50;86.02
50684;BME280;36654;45.042;38.994;2023-02-04T03:36:12;101118.06;;;2.27;86.02
50684;BME280;36654;45.042;38.994;2023-02-04T03:38:37;101163.59;;;2.49;86.00
50684;BME280;36654;45.042;38.994;2023-02-04T03:41:03;101144.00;;;2.41;85.97
50684;BME280;36654;45.042;38.994;2023-02-04T03:43:29;101145.78;;;2.42;85.85
50684;BME280;36654;45.042;38.994;2023-02-04T03:45:54;101151.13;;;2.43;85.83
50684;BME280;36654;45.042;38.994;2023-02-04T03:48:20;101116.34;;;2.28;85.89
50684;BME280;36654;45.042;38.994;2023-02-04T03:50:45;101143.03;;;2.38;86.14
50684;BME280;36654;45.042;38.994;2023-02-04T03:53:11;101128.31;;;2.41;86.07
50684;BME280;36654;45.042;38.994;2023-02-04T03:55:37;101116.34;;;2.28;85.96
50684;BME280;36654;45.042;38.994;2023-02-04T03:58:03;101047.34;;;1.91;86.20
50684;BME280;36654;45.042;38.994;2023-02-04T04:00:30;101141.41;;;2.41;86.19
50684;BME280;36654;45.042;38.994;2023-02-04T04:02:57;101139.66;;;2.41;86.35
50684;BME280;36654;45.042;38.994;2023-02-04T04:05:23;101155.59;;;2.46;86.27
50684;BME280;36654;45.042;38.994;2023-02-04T04:07:49;101143.88;;;2.37;86.19
50684;BME280;36654;45.042;38.994;2023-02-04T04:10:15;101168.69;;;2.46;86.19
50684;BME280;36654;45.042;38.994;2023-02-04T04:12:41;101121.47;;;2.26;86.37
50684;BME280;36654;45.042;38.994;2023-02-04T04:15:07;101140.41;;;2.38;86.36
50684;BME280;36654;45.042;38.994;2023-02-04T04:17:33;101148.59;;;2.45;86.43
50684;BME280;36654;45.042;38.994;2023-02-04T04:19:58;101140.31;;;2.37;86.26
50684;BME280;36654;45.042;38.994;2023-02-04T04:22:24;101126.19;;;2.33;86.34
50684;BME280;36654;45.042;38.994;2023-02-04T04:24:50;101136.81;;;2.36;86.32
50684;BME280;36654;45.042;38.994;2023-02-04T04:27:15;101143.13;;;2.40;86.08
50684;BME280;36654;45.042;38.994;2023-02-04T04:29:41;101112.72;;;2.26;86.32
50684;BME280;36654;45.042;38.994;2023-02-04T04:32:06;101109.88;;;2.21;86.11
50684;BME280;36654;45.042;38.994;2023-02-04T04:34:34;101153.00;;;2.46;86.02
50684;BME280;36654;45.042;38.994;2023-02-04T04:36:59;101154.38;;;2.39;85.82
50684;BME280;36654;45.042;38.994;2023-02-04T04:39:25;101160.59;;;2.41;85.72
50684;BME280;36654;45.042;38.994;2023-02-04T04:41:51;101121.97;;;2.19;85.79
50684;BME280;36654;45.042;38.994;2023-02-04T04:44:16;101141.00;;;2.33;85.99
50684;BME280;36654;45.042;38.994;2023-02-04T04:46:42;101157.00;;;2.39;85.87
50684;BME280;36654;45.042;38.994;2023-02-04T04:49:07;101097.00;;;2.08;85.88
50684;BME280;36654;45.042;38.994;2023-02-04T04:51:33;101094.41;;;2.08;85.87
50684;BME280;36654;45.042;38.994;2023-02-04T04:53:59;101147.44;;;2.40;85.90
50684;BME280;36654;45.042;38.994;2023-02-04T04:56:24;101127.03;;;2.32;85.94
50684;BME280;36654;45.042;38.994;2023-02-04T04:58:50;101162.81;;;2.50;85.84
50684;BME280;36654;45.042;38.994;2023-02-04T05:01:16;101148.97;;;2.52;85.94
50684;BME280;36654;45.042;38.994;2023-02-04T05:03:41;101152.47;;;2.53;85.95
50684;BME280;36654;45.042;38.994;2023-02-04T05:06:07;101151.66;;;2.54;85.84
50684;BME280;36654;45.042;38.994;2023-02-04T05:08:34;101156.88;;;2.54;85.83
50684;BME280;36654;45.042;38.994;2023-02-04T05:11:01;101153.47;;;2.55;85.89
50684;BME280;36654;45.042;38.994;2023-02-04T05:13:27;101150.63;;;2.50;85.80
50684;BME280;36654;45.042;38.994;2023-02-04T05:15:55;101085.94;;;2.13;85.52
50684;BME280;36654;45.042;38.994;2023-02-04T05:18:21;101161.69;;;2.63;85.62
50684;BME280;36654;45.042;38.994;2023-02-04T05:20:47;101148.13;;;2.53;85.65
50684;BME280;36654;45.042;38.994;2023-02-04T05:23:12;101150.91;;;2.56;85.83
50684;BME280;36654;45.042;38.994;2023-02-04T05:25:38;101167.22;;;2.69;85.69
50684;BME280;36654;45.042;38.994;2023-02-04T05:28:04;101128.59;;;2.47;85.47
50684;BME280;36654;45.042;38.994;2023-02-04T05:30:30;101165.13;;;2.62;85.62
50684;BME280;36654;45.042;38.994;2023-02-04T05:32:55;101176.91;;;2.70;85.54
50684;BME280;36654;45.042;38.994;2023-02-04T05:35:21;101159.13;;;2.64;85.44
50684;BME280;36654;45.042;38.994;2023-02-04T05:37:47;101173.72;;;2.77;85.54
50684;BME280;36654;45.042;38.994;2023-02-04T05:40:13;101163.06;;;2.72;85.61
50684;BME280;36654;45.042;38.994;2023-02-04T05:42:38;101174.28;;;2.88;85.66
50684;BME280;36654;45.042;38.994;2023-02-04T05:45:06;101160.22;;;2.86;85.56
50684;BME280;36654;45.042;38.994;2023-02-04T05:47:32;101156.09;;;2.91;85.26
50684;BME280;36654;45.042;38.994;2023-02-04T05:49:58;101149.22;;;2.93;85.40
50684;BME280;36654;45.042;38.994;2023-02-04T05:52:23;101161.63;;;2.97;85.29
50684;BME280;36654;45.042;38.994;2023-02-04T05:54:49;101158.56;;;3.06;85.02
50684;BME280;36654;45.042;38.994;2023-02-04T05:57:14;101156.16;;;3.10;84.80
50684;BME280;36654;45.042;38.994;2023-02-04T05:59:40;101029.31;;;2.32;84.78
50684;BME280;36654;45.042;38.994;2023-02-04T06:02:06;101171.13;;;3.13;84.73
50684;BME280;36654;45.042;38.994;2023-02-04T06:04:31;101174.16;;;3.22;84.61
50684;BME280;36654;45.042;38.994;2023-02-04T06:06:57;101109.78;;;2.90;84.34
50684;BME280;36654;45.042;38.994;2023-02-04T06:09:22;101156.56;;;3.19;84.40
50684;BME280;36654;45.042;38.994;2023-02-04T06:11:48;101086.75;;;2.83;83.95
50684;BME280;36654;45.042;38.994;2023-02-04T06:14:13;101164.53;;;3.21;83.98
50684;BME280;36654;45.042;38.994;2023-02-04T06:16:39;101162.66;;;3.18;83.87
50684;BME280;36654;45.042;38.994;2023-02-04T06:19:05;101091.06;;;2.82;83.63
50684;BME280;36654;45.042;38.994;2023-02-04T06:21:30;101095.72;;;2.88;83.84
50684;BME280;36654;45.042;38.994;2023-02-04T06:23:56;101126.06;;;3.02;83.76
50684;BME280;36654;45.042;38.994;2023-02-04T06:26:21;101140.59;;;3.13;83.82
50684;BME280;36654;45.042;38.994;2023-02-04T06:28:47;101146.66;;;3.12;83.64
50684;BME280;36654;45.042;38.994;2023-02-04T06:31:13;101137.00;;;3.11;83.62
50684;BME280;36654;45.042;38.994;2023-02-04T06:33:38;101135.25;;;3.12;83.67
50684;BME280;36654;45.042;38.994;2023-02-04T06:36:04;101170.88;;;3.26;83.43
50684;BME280;36654;45.042;38.994;2023-02-04T06:38:30;101147.78;;;3.17;83.43
50684;BME280;36654;45.042;38.994;2023-02-04T06:40:55;101088.66;;;2.87;83.36
50684;BME280;36654;45.042;38.994;2023-02-04T06:43:21;101103.03;;;2.95;83.48
50684;BME280;36654;45.042;38.994;2023-02-04T06:45:50;101170.34;;;3.33;83.56
50684;BME280;36654;45.042;38.994;2023-02-04T06:48:16;101171.25;;;3.34;83.71
50684;BME280;36654;45.042;38.994;2023-02-04T06:50:42;101166.00;;;3.34;83.58
50684;BME280;36654;45.042;38.994;2023-02-04T06:53:07;101178.56;;;3.41;83.76
50684;BME280;36654;45.042;38.994;2023-02-04T06:55:33;101184.88;;;3.44;83.61
50684;BME280;36654;45.042;38.994;2023-02-04T06:57:59;101187.41;;;3.43;83.72
50684;BME280;36654;45.042;38.994;2023-02-04T07:00:24;101122.88;;;3.08;83.92
50684;BME280;36654;45.042;38.994;2023-02-04T07:02:50;101154.34;;;3.27;84.23
50684;BME280;36654;45.042;38.994;2023-02-04T07:05:15;101168.22;;;3.24;84.23
50684;BME280;36654;45.042;38.994;2023-02-04T07:07:41;101177.84;;;3.26;84.04
50684;BME280;36654;45.042;38.994;2023-02-04T07:10:07;101193.03;;;3.33;84.12
50684;BME280;36654;45.042;38.994;2023-02-04T07:12:33;101143.72;;;3.06;84.00
50684;BME280;36654;45.042;38.994;2023-02-04T07:14:58;101188.69;;;3.33;83.92
50684;BME280;36654;45.042;38.994;2023-02-04T07:17:24;101170.97;;;3.28;84.16
50684;BME280;36654;45.042;38.994;2023-02-04T07:19:49;101168.75;;;3.17;83.90
50684;BME280;36654;45.042;38.994;2023-02-04T07:22:15;101186.38;;;3.21;83.54
50684;BME280;36654;45.042;38.994;2023-02-04T07:24:41;101188.25;;;3.24;83.68
50684;BME280;36654;45.042;38.994;2023-02-04T07:27:06;101143.38;;;2.98;83.56
50684;BME280;36654;45.042;38.994;2023-02-04T07:29:32;101127.19;;;2.89;83.62
50684;BME280;36654;45.042;38.994;2023-02-04T07:31:57;101193.25;;;3.19;83.41
50684;BME280;36654;45.042;38.994;2023-02-04T07:34:23;101187.75;;;3.13;83.39
50684;BME280;36654;45.042;38.994;2023-02-04T07:36:49;101192.59;;;3.23;83.35
50684;BME280;36654;45.042;38.994;2023-02-04T07:39:15;101164.25;;;3.15;83.39
50684;BME280;36654;45.042;38.994;2023-02-04T07:41:40;101187.50;;;3.27;83.32
50684;BME280;36654;45.042;38.994;2023-02-04T07:44:06;101198.28;;;3.33;83.08
50684;BME280;36654;45.042;38.994;2023-02-04T07:46:32;101215.88;;;3.35;82.99
50684;BME280;36654;45.042;38.994;2023-02-04T07:48:57;101211.53;;;3.36;82.98
50684;BME280;36654;45.042;38.994;2023-02-04T07:51:23;101203.53;;;3.33;82.94
50684;BME280;36654;45.042;38.994;2023-02-04T07:53:49;101196.47;;;3.32;82.69
50684;BME280;36654;45.042;38.994;2023-02-04T07:56:14;101175.75;;;3.18;82.63
50684;BME280;36654;45.042;38.994;2023-02-04T07:58:40;101180.72;;;3.12;82.77
50684;BME280;36654;45.042;38.994;2023-02-04T08:01:06;101203.31;;;3.28;82.54
50684;BME280;36654;45.042;38.994;2023-02-04T08:03:31;101207.94;;;3.34;82.58
50684;BME280;36654;45.042;38.994;2023-02-04T08:05:57;101206.75;;;3.45;82.87
50684;BME280;36654;45.042;38.994;2023-02-04T08:08:22;101196.25;;;3.45;82.42
50684;BME280;36654;45.042;38.994;2023-02-04T08:10:49;101210.75;;;3.56;82.43
50684;BME280;36654;45.042;38.994;2023-02-04T08:13:14;101196.66;;;3.54;82.47
50684;BME280;36654;45.042;38.994;2023-02-04T08:15:40;101168.41;;;3.47;82.22
50684;BME280;36654;45.042;38.994;2023-02-04T08:18:05;101192.91;;;3.67;82.24
50684;BME280;36654;45.042;38.994;2023-02-04T08:20:31;101186.16;;;3.72;82.04
50684;BME280;36654;45.042;38.994;2023-02-04T08:22:57;101201.69;;;3.87;81.68
50684;BME280;36654;45.042;38.994;2023-02-04T08:25:23;101197.22;;;3.84;81.61
50684;BME280;36654;45.042;38.994;2023-02-04T08:27:49;101193.25;;;3.94;81.53
50684;BME280;36654;45.042;38.994;2023-02-04T08:30:14;101191.59;;;3.96;81.28
50684;BME280;36654;45.042;38.994;2023-02-04T08:32:40;101195.75;;;4.10;81.09
50684;BME280;36654;45.042;38.994;2023-02-04T08:35:07;101181.09;;;4.16;80.93
50684;BME280;36654;45.042;38.994;2023-02-04T08:37:33;101183.28;;;4.26;80.42
50684;BME280;36654;45.042;38.994;2023-02-04T08:39:58;101178.72;;;4.22;80.30
50684;BME280;36654;45.042;38.994;2023-02-04T08:42:24;101185.44;;;4.35;80.28
50684;BME280;36654;45.042;38.994;2023-02-04T08:44:49;101183.00;;;4.39;80.01
50684;BME280;36654;45.042;38.994;2023-02-04T08:47:15;101184.03;;;4.43;79.75
50684;BME280;36654;45.042;38.994;2023-02-04T08:49:41;101170.84;;;4.41;79.34
50684;BME280;36654;45.042;38.994;2023-02-04T08:52:07;101181.75;;;4.50;79.31
50684;BME280;36654;45.042;38.994;2023-02-04T08:54:33;101172.66;;;4.42;79.10
50684;BME280;36654;45.042;38.994;2023-02-04T08:56:59;101179.81;;;4.46;79.08
50684;BME280;36654;45.042;38.994;2023-02-04T08:59:25;101108.38;;;4.13;78.96
50684;BME280;36654;45.042;38.994;2023-02-04T09:01:51;101168.69;;;4.52;78.83
50684;BME280;36654;45.042;38.994;2023-02-04T09:04:17;101155.34;;;4.47;78.93
50684;BME280;36654;45.042;38.994;2023-02-04T09:06:44;101123.13;;;4.30;78.71
50684;BME280;36654;45.042;38.994;2023-02-04T09:09:10;101167.63;;;4.48;78.71
50684;BME280;36654;45.042;38.994;2023-02-04T09:11:36;101164.03;;;4.46;78.75
50684;BME280;36654;45.042;38.994;2023-02-04T09:14:01;101147.09;;;4.38;78.92
50684;BME280;36654;45.042;38.994;2023-02-04T09:16:27;101165.09;;;4.50;78.93
50684;BME280;36654;45.042;38.994;2023-02-04T09:18:53;101160.34;;;4.41;78.93
50684;BME280;36654;45.042;38.994;2023-02-04T09:21:18;101163.81;;;4.40;78.95
50684;BME280;36654;45.042;38.994;2023-02-04T09:23:44;101144.22;;;4.32;78.86
50684;BME280;36654;45.042;38.994;2023-02-04T09:26:11;101123.78;;;4.25;78.83
50684;BME280;36654;45.042;38.994;2023-02-04T09:28:37;101158.56;;;4.40;79.20
50684;BME280;36654;45.042;38.994;2023-02-04T09:31:03;101143.81;;;4.44;78.99
50684;BME280;36654;45.042;38.994;2023-02-04T09:33:31;101149.13;;;4.45;78.76
50684;BME280;36654;45.042;38.994;2023-02-04T09:35:57;101151.00;;;4.48;78.89
50684;BME280;36654;45.042;38.994;2023-02-04T09:38:23;101149.66;;;4.58;79.02
50684;BME280;36654;45.042;38.994;2023-02-04T09:40:53;101151.63;;;4.63;78.80
50684;BME280;36654;45.042;38.994;2023-02-04T09:43:22;101160.22;;;4.80;78.51
50684;BME280;36654;45.042;38.994;2023-02-04T09:45:52;101160.34;;;4.83;78.26
50684;BME280;36654;45.042;38.994;2023-02-04T09:48:20;101138.00;;;4.72;77.86
50684;BME280;36654;45.042;38.994;2023-02-04T09:50:47;101142.53;;;4.76;77.72
50684;BME280;36654;45.042;38.994;2023-02-04T09:53:21;101086.81;;;4.41;77.44
50684;BME280;36654;45.042;38.994;2023-02-04T09:55:49;101128.19;;;4.68;77.64
50684;BME280;36654;45.042;38.994;2023-02-04T09:58:17;101146.25;;;4.81;77.28
50684;BME280;36654;45.042;38.994;2023-02-04T10:00:45;101124.72;;;4.69;77.24
50684;BME280;36654;45.042;38.994;2023-02-04T10:03:17;101143.50;;;4.78;77.33
50684;BME280;36654;45.042;38.994;2023-02-04T10:05:45;101132.16;;;4.79;77.48
50684;BME280;36654;45.042;38.994;2023-02-04T10:08:27;101144.22;;;4.96;77.41
50684;BME280;36654;45.042;38.994;2023-02-04T10:10:53;101139.94;;;4.98;77.13
50684;BME280;36654;45.042;38.994;2023-02-04T10:13:21;101128.03;;;5.07;76.87
50684;BME280;36654;45.042;38.994;2023-02-04T10:15:48;101144.03;;;5.13;76.79
50684;BME280;36654;45.042;38.994;2023-02-04T10:18:20;101075.75;;;4.69;76.58
50684;BME280;36654;45.042;38.994;2023-02-04T10:20:48;101130.16;;;4.94;76.74
50684;BME280;36654;45.042;38.994;2023-02-04T10:23:13;101124.84;;;4.93;76.96
50684;BME280;36654;45.042;38.994;2023-02-04T10:25:39;101090.88;;;4.76;77.26
50684;BME280;36654;45.042;38.994;2023-02-04T10:28:05;101132.44;;;5.08;77.21
50684;BME280;36654;45.042;38.994;2023-02-04T10:30:37;101114.25;;;5.14;77.11
50684;BME280;36654;45.042;38.994;2023-02-04T10:33:23;101106.75;;;5.23;76.82
50684;BME280;36654;45.042;38.994;2023-02-04T10:35:51;101131.00;;;5.38;76.58
50684;BME280;36654;45.042;38.994;2023-02-04T10:38:17;101117.75;;;5.35;76.14
50684;BME280;36654;45.042;38.994;2023-02-04T10:40:43;101111.03;;;5.21;76.02
50684;BME280;36654;45.042;38.994;2023-02-04T10:43:17;101120.19;;;5.08;76.11
50684;BME280;36654;45.042;38.994;2023-02-04T10:45:47;101096.13;;;4.97;76.14
50684;BME280;36654;45.042;38.994;2023-02-04T10:48:19;101130.81;;;5.11;76.37
50684;BME280;36654;45.042;38.994;2023-02-04T10:50:46;101137.91;;;5.14;76.27
50684;BME280;36654;45.042;38.994;2023-02-04T10:53:18;101133.28;;;5.07;76.09
50684;BME280;36654;45.042;38.994;2023-02-04T10:56:04;101140.44;;;5.11;76.15
50684;BME280;36654;45.042;38.994;2023-02-04T10:58:34;101078.72;;;4.79;76.02
50684;BME280;36654;45.042;38.994;2023-02-04T11:00:59;101138.38;;;5.04;75.85
50684;BME280;36654;45.042;38.994;2023-02-04T11:03:28;101137.75;;;5.09;75.84
50684;BME280;36654;45.042;38.994;2023-02-04T11:05:58;101135.91;;;5.07;75.87
50684;BME280;36654;45.042;38.994;2023-02-04T11:08:35;101127.88;;;5.04;76.28
50684;BME280;36654;45.042;38.994;2023-02-04T11:11:07;101127.78;;;5.01;76.06
50684;BME280;36654;45.042;38.994;2023-02-04T11:13:40;101148.91;;;5.04;76.14
50684;BME280;36654;45.042;38.994;2023-02-04T11:18:53;101142.56;;;4.98;76.41
50684;BME280;36654;45.042;38.994;2023-02-04T11:26:42;101142.09;;;5.09;75.97
50684;BME280;36654;45.042;38.994;2023-02-04T11:39:47;101130.41;;;5.23;75.19
50684;BME280;36654;45.042;38.994;2023-02-04T11:47:19;101085.47;;;4.72;74.66
50684;BME280;36654;45.042;38.994;2023-02-04T11:49:53;101141.44;;;4.92;75.23
50684;BME280;36654;45.042;38.994;2023-02-04T11:52:20;101150.09;;;4.89;75.23
50684;BME280;36654;45.042;38.994;2023-02-04T11:54:57;101121.28;;;4.70;75.65
50684;BME280;36654;45.042;38.994;2023-02-04T11:57:22;101147.66;;;4.73;75.99
50684;BME280;36654;45.042;38.994;2023-02-04T11:59:48;101147.44;;;4.67;76.14
50684;BME280;36654;45.042;38.994;2023-02-04T12:02:23;101150.63;;;4.60;76.57
50684;BME280;36654;45.042;38.994;2023-02-04T12:04:55;101149.59;;;4.56;76.66
50684;BME280;36654;45.042;38.994;2023-02-04T12:07:27;101061.59;;;4.03;76.74
50684;BME280;36654;45.042;38.994;2023-02-04T12:09:54;101141.50;;;4.51;76.75
50684;BME280;36654;45.042;38.994;2023-02-04T12:15:08;101138.19;;;4.56;77.12
50684;BME280;36654;45.042;38.994;2023-02-04T12:17:34;101134.72;;;4.57;77.23
50684;BME280;36654;45.042;38.994;2023-02-04T12:20:00;101140.25;;;4.63;77.21
50684;BME280;36654;45.042;38.994;2023-02-04T12:22:25;101139.84;;;4.53;77.28
50684;BME280;36654;45.042;38.994;2023-02-04T12:24:51;101149.34;;;4.50;77.53
50684;BME280;36654;45.042;38.994;2023-02-04T12:27:17;101142.91;;;4.43;77.67
50684;BME280;36654;45.042;38.994;2023-02-04T12:29:43;101149.03;;;4.42;77.79
50684;BME280;36654;45.042;38.994;2023-02-04T12:32:08;101149.03;;;4.42;78.25
50684;BME280;36654;45.042;38.994;2023-02-04T12:34:34;101156.38;;;4.51;78.27
50684;BME280;36654;45.042;38.994;2023-02-04T12:36:59;101126.28;;;4.43;78.20
50684;BME280;36654;45.042;38.994;2023-02-04T12:39:25;101143.13;;;4.48;78.28
50684;BME280;36654;45.042;38.994;2023-02-04T12:41:52;101153.69;;;4.49;78.41
50684;BME280;36654;45.042;38.994;2023-02-04T12:44:18;101132.41;;;4.43;78.75
50684;BME280;36654;45.042;38.994;2023-02-04T12:46:43;101148.69;;;4.56;78.75
50684;BME280;36654;45.042;38.994;2023-02-04T12:49:09;101144.34;;;4.56;78.67
50684;BME280;36654;45.042;38.994;2023-02-04T12:51:35;101137.19;;;4.52;78.71
50684;BME280;36654;45.042;38.994;2023-02-04T12:54:00;101144.59;;;4.41;78.79
50684;BME280;36654;45.042;38.994;2023-02-04T12:56:26;101139.31;;;4.41;78.82
50684;BME280;36654;45.042;38.994;2023-02-04T12:58:51;101134.53;;;4.31;78.90
50684;BME280;36654;45.042;38.994;2023-02-04T13:01:17;101144.34;;;4.35;79.16
50684;BME280;36654;45.042;38.994;2023-02-04T13:03:42;101136.06;;;4.26;79.27
50684;BME280;36654;45.042;38.994;2023-02-04T13:06:08;101116.06;;;4.08;79.36
50684;BME280;36654;45.042;38.994;2023-02-04T13:08:34;101133.94;;;4.17;79.50
50684;BME280;36654;45.042;38.994;2023-02-04T13:10:59;101084.75;;;3.92;79.62
50684;BME280;36654;45.042;38.994;2023-02-04T13:13:25;101133.19;;;4.20;79.82